Time;durP1;ratioP1;P1;durP2;ratioP2;P2;SDS_P1;SDS_P2;PMS_P1;PMS_P2;Temp;Humidity;BMP_temperature;BMP_pressure;BME280_temperature;BME280_humidity;BME280_pressure;Samples;Min_cycle;Max_cycle;Signal;HPM_P1;HPM_P2
2022/08/05 00:00:17;;;;;;;5.88;2.65;;;20.20;99.90;;;;;;5095486;28;20464;-74
2022/08/05 00:02:44;;;;;;;7.25;2.50;;;20.30;99.90;;;;;;5094404;28;20040;-74
2022/08/05 00:05:09;;;;;;;9.88;2.63;;;20.30;99.90;;;;;;5095813;28;20467;-75
2022/08/05 00:07:35;;;;;;;6.95;2.60;;;20.20;99.90;;;;;;5095463;28;20107;-74
2022/08/05 00:10:01;;;;;;;8.43;2.60;;;20.30;99.90;;;;;;5077375;28;20061;-75
2022/08/05 00:12:26;;;;;;;6.40;2.35;;;20.20;99.90;;;;;;5095602;28;20036;-75
2022/08/05 00:14:52;;;;;;;9.93;2.60;;;20.20;99.90;;;;;;5095419;28;20040;-75
2022/08/05 00:17:17;;;;;;;7.68;2.58;;;20.20;99.90;;;;;;5094047;28;20095;-75
2022/08/05 00:19:43;;;;;;;6.68;2.50;;;20.30;99.90;;;;;;5095378;28;20043;-74
2022/08/05 00:22:09;;;;;;;7.90;2.22;;;20.20;99.90;;;;;;5095263;28;20086;-75
2022/08/05 00:24:34;;;;;;;4.97;2.40;;;20.10;99.90;;;;;;5093913;28;20109;-75
2022/08/05 00:27:01;;;;;;;6.82;2.33;;;20.10;99.90;;;;;;5093824;28;20048;-74
2022/08/05 00:29:26;;;;;;;6.72;2.45;;;20.10;99.90;;;;;;5095371;28;20497;-75
2022/08/05 00:31:53;;;;;;;6.45;2.65;;;20.10;99.90;;;;;;5093857;28;20081;-75
2022/08/05 00:34:18;;;;;;;8.20;2.47;;;20.20;99.90;;;;;;5092366;28;20135;-75
2022/08/05 00:36:44;;;;;;;6.55;2.60;;;20.10;99.90;;;;;;5093752;28;20079;-75
2022/08/05 00:39:11;;;;;;;7.53;2.30;;;20.10;99.90;;;;;;5093618;28;20051;-75
2022/08/05 00:41:37;;;;;;;6.30;2.60;;;20.10;99.90;;;;;;5094938;28;20043;-75
2022/08/05 00:44:03;;;;;;;7.95;2.60;;;20.10;99.90;;;;;;5093393;28;20044;-74
2022/08/05 00:46:28;;;;;;;8.43;2.85;;;20.00;99.90;;;;;;5093226;28;20055;-75
2022/08/05 00:48:54;;;;;;;7.43;2.72;;;20.00;99.90;;;;;;5094819;28;20031;-75
2022/08/05 00:51:20;;;;;;;7.95;3.00;;;19.90;99.90;;;;;;5094454;28;20165;-75
2022/08/05 00:53:46;;;;;;;9.13;3.08;;;19.90;99.90;;;;;;5092798;28;20452;-75
2022/08/05 00:56:13;;;;;;;10.40;3.33;;;19.90;99.90;;;;;;5093941;28;20130;-74
2022/08/05 00:58:39;;;;;;;6.32;3.00;;;20.00;99.90;;;;;;5093891;28;20480;-75
2022/08/05 01:01:05;;;;;;;6.32;2.80;;;19.80;99.90;;;;;;5092657;28;20044;-75
2022/08/05 01:03:31;;;;;;;5.68;2.63;;;19.80;99.90;;;;;;5093476;28;20127;-75
2022/08/05 01:05:56;;;;;;;7.97;3.03;;;19.80;99.90;;;;;;5093998;28;20080;-75
2022/08/05 01:08:22;;;;;;;8.00;3.08;;;19.80;99.90;;;;;;5094021;28;20036;-75
2022/08/05 01:10:53;;;;;;;8.40;3.05;;;19.80;99.90;;;;;;5092573;28;20054;-75
2022/08/05 01:13:53;;;;;;;6.82;2.70;;;19.80;99.90;;;;;;5094116;28;20040;-75
2022/08/05 01:16:43;;;;;;;6.13;2.60;;;19.80;99.90;;;;;;5085923;28;20105;-75
2022/08/05 01:19:38;;;;;;;6.38;2.80;;;19.80;99.90;;;;;;5093284;28;20051;-75
2022/08/05 01:22:19;;;;;;;5.97;2.47;;;19.80;99.90;;;;;;5092161;28;20043;-75
2022/08/05 01:25:22;;;;;;;8.40;2.90;;;19.80;99.90;;;;;;5093410;28;20408;-75
2022/08/05 01:28:03;;;;;;;9.07;2.70;;;19.80;99.90;;;;;;5093446;28;20051;-75
2022/08/05 01:30:32;;;;;;;7.45;2.30;;;19.80;99.90;;;;;;5092227;28;20201;-75
2022/08/05 01:32:59;;;;;;;6.95;2.40;;;19.80;99.90;;;;;;5093300;28;20138;-76
2022/08/05 01:35:27;;;;;;;6.30;2.42;;;19.90;99.90;;;;;;5092125;28;20048;-76
2022/08/05 01:37:55;;;;;;;6.57;2.75;;;19.80;99.90;;;;;;5093144;28;20488;-76
2022/08/05 01:40:27;;;;;;;7.45;2.75;;;19.80;99.90;;;;;;5093248;28;20044;-75
2022/08/05 01:42:54;;;;;;;6.80;2.78;;;19.80;99.90;;;;;;5075504;28;20044;-76
2022/08/05 01:45:21;;;;;;;6.45;2.58;;;19.80;99.90;;;;;;5093273;28;20052;-76
2022/08/05 01:47:50;;;;;;;7.95;2.50;;;19.80;99.90;;;;;;5093280;28;20044;-75
2022/08/05 01:50:25;;;;;;;7.22;2.53;;;19.80;99.90;;;;;;5093011;28;20093;-76
2022/08/05 01:52:54;;;;;;;10.60;2.50;;;19.80;99.90;;;;;;5092989;28;20408;-75
2022/08/05 01:55:22;;;;;;;8.73;3.00;;;19.90;99.90;;;;;;5091529;28;20044;-76
2022/08/05 01:57:50;;;;;;;7.45;2.60;;;19.90;99.90;;;;;;5091696;28;20044;-75
2022/08/05 02:00:17;;;;;;;7.05;2.78;;;19.80;99.90;;;;;;5092626;28;20047;-75
2022/08/05 02:02:51;;;;;;;6.90;2.70;;;19.80;99.90;;;;;;5092830;28;20418;-75
2022/08/05 02:05:19;;;;;;;7.03;2.53;;;19.80;99.90;;;;;;5091394;28;20051;-76
2022/08/05 02:07:45;;;;;;;6.60;2.63;;;19.70;99.90;;;;;;5092779;28;20124;-75
2022/08/05 02:10:11;;;;;;;6.57;2.30;;;19.70;99.90;;;;;;5091562;28;20539;-76
2022/08/05 02:13:02;;;;;;;6.47;2.50;;;19.70;99.90;;;;;;5092816;28;20047;-76
2022/08/05 02:15:33;;;;;;;8.20;2.80;;;19.70;99.90;;;;;;5092003;28;20090;-75
2022/08/05 02:18:06;;;;;;;7.05;2.50;;;19.70;99.90;;;;;;5093018;28;20047;-75
2022/08/05 02:21:01;;;;;;;7.32;2.58;;;19.60;99.90;;;;;;5091797;28;20433;-76
2022/08/05 02:23:31;;;;;;;8.38;2.67;;;19.70;99.90;;;;;;5091455;28;20048;-76
2022/08/05 02:26:01;;;;;;;7.28;2.70;;;19.70;99.90;;;;;;5092820;28;20055;-75
2022/08/05 02:28:30;;;;;;;9.10;2.80;;;19.70;99.90;;;;;;5092932;28;20414;-76
2022/08/05 02:31:06;;;;;;;5.90;2.63;;;19.70;99.90;;;;;;5091380;28;20071;-76
2022/08/05 02:33:38;;;;;;;7.85;2.65;;;19.60;99.90;;;;;;5092768;28;20078;-75
2022/08/05 02:36:08;;;;;;;6.70;2.70;;;19.60;99.90;;;;;;5092557;28;20403;-75
2022/08/05 02:38:35;;;;;;;6.88;3.15;;;19.60;99.90;;;;;;5092579;28;20040;-75
2022/08/05 02:41:03;;;;;;;6.15;2.40;;;19.60;99.90;;;;;;5092396;28;20101;-75
2022/08/05 02:43:29;;;;;;;9.13;2.55;;;19.60;99.90;;;;;;5091056;28;20040;-75
2022/08/05 02:45:56;;;;;;;3.90;2.35;;;19.60;99.90;;;;;;5091146;28;20044;-75
2022/08/05 02:48:24;;;;;;;6.53;2.85;;;19.50;99.90;;;;;;5092664;28;20055;-75
2022/08/05 02:50:51;;;;;;;7.97;2.80;;;19.60;99.90;;;;;;5092469;28;20048;-76
2022/08/05 02:53:19;;;;;;;6.40;2.53;;;19.60;99.90;;;;;;5092548;28;20405;-75
2022/08/05 02:55:51;;;;;;;5.70;2.78;;;19.60;99.90;;;;;;5125337;28;20058;-75
2022/08/05 02:58:20;;;;;;;7.78;2.63;;;19.60;99.90;;;;;;5091293;28;20177;-76
2022/08/05 03:00:45;;;;;;;7.35;2.70;;;19.60;99.90;;;;;;5092556;28;20451;-75
2022/08/05 03:03:18;;;;;;;7.10;2.78;;;19.60;99.90;;;;;;5092310;28;20072;-75
2022/08/05 03:05:46;;;;;;;7.35;2.97;;;19.50;99.90;;;;;;5092373;28;20050;-75
2022/08/05 03:08:13;;;;;;;6.63;2.88;;;19.50;99.90;;;;;;5091172;28;20147;-76
2022/08/05 03:10:42;;;;;;;9.35;3.05;;;19.50;99.90;;;;;;5090804;28;20132;-76
2022/08/05 03:13:15;;;;;;;8.25;3.03;;;19.50;99.90;;;;;;5091356;28;20135;-75
2022/08/05 03:15:45;;;;;;;5.45;2.95;;;19.50;99.90;;;;;;5092571;28;20426;-74
2022/08/05 03:18:11;;;;;;;7.88;3.13;;;19.80;99.90;;;;;;5091042;28;20127;-75
2022/08/05 03:20:38;;;;;;;11.77;3.15;;;19.50;99.90;;;;;;5106999;28;20100;-75
2022/08/05 03:23:09;;;;;;;6.10;3.20;;;19.50;99.90;;;;;;5110344;28;20545;-75
2022/08/05 03:25:36;;;;;;;7.70;3.20;;;19.40;99.90;;;;;;5092204;28;20101;-75
2022/08/05 03:28:04;;;;;;;6.90;3.17;;;19.40;99.90;;;;;;5127554;27;20040;-75
2022/08/05 03:30:31;;;;;;;7.72;3.25;;;19.40;99.90;;;;;;5095637;28;20052;-75
2022/08/05 03:33:02;;;;;;;7.53;3.05;;;19.40;99.90;;;;;;5094533;28;20047;-74
2022/08/05 03:35:28;;;;;;;8.30;3.53;;;19.40;99.90;;;;;;5095581;28;20515;-75
2022/08/05 03:37:58;;;;;;;7.28;3.65;;;19.40;99.90;;;;;;5095372;28;20036;-75
2022/08/05 03:40:24;;;;;;;8.60;3.97;;;19.30;99.90;;;;;;5095615;28;20044;-74
2022/08/05 03:42:49;;;;;;;11.43;3.40;;;19.30;99.90;;;;;;5094267;28;20496;-75
2022/08/05 03:45:15;;;;;;;5.15;3.10;;;19.30;99.90;;;;;;5094220;28;20051;-74
2022/08/05 03:47:41;;;;;;;6.18;3.00;;;19.30;99.90;;;;;;5095570;28;20437;-75
2022/08/05 03:50:07;;;;;;;8.65;3.13;;;19.30;99.90;;;;;;5095320;28;20365;-75
2022/08/05 03:52:41;;;;;;;9.70;3.53;;;19.30;99.90;;;;;;5095157;28;20090;-75
2022/08/05 03:55:10;;;;;;;6.55;3.17;;;19.20;99.90;;;;;;5094032;28;20135;-75
2022/08/05 03:57:38;;;;;;;8.63;3.47;;;19.20;99.90;;;;;;5094855;28;20051;-75
2022/08/05 04:00:13;;;;;;;5.95;3.30;;;19.20;99.90;;;;;;5095184;28;20079;-75
2022/08/05 04:02:47;;;;;;;5.95;3.50;;;19.20;99.90;;;;;;5093600;28;20058;-75
2022/08/05 04:05:14;;;;;;;7.00;3.08;;;19.20;99.90;;;;;;5094947;28;20040;-75
2022/08/05 04:07:41;;;;;;;8.88;3.38;;;19.30;99.90;;;;;;5093781;28;20399;-75
2022/08/05 04:10:08;;;;;;;7.25;3.20;;;19.20;99.90;;;;;;5094112;28;20075;-75
2022/08/05 04:12:34;;;;;;;5.47;3.00;;;19.20;99.90;;;;;;5094194;28;20075;-75
2022/08/05 04:15:00;;;;;;;7.68;2.90;;;19.20;99.90;;;;;;5093504;28;20476;-75
2022/08/05 04:17:26;;;;;;;9.07;3.35;;;19.10;99.90;;;;;;5094860;28;20071;-75
2022/08/05 04:19:52;;;;;;;5.82;2.95;;;19.20;99.90;;;;;;5093398;28;20086;-75
2022/08/05 04:22:17;;;;;;;7.82;3.38;;;19.20;99.90;;;;;;5094851;28;20040;-75
2022/08/05 04:24:45;;;;;;;5.30;2.80;;;19.20;99.90;;;;;;5094541;28;20517;-75
2022/08/05 04:27:14;;;;;;;5.75;2.95;;;19.20;99.90;;;;;;5093267;28;20083;-75
2022/08/05 04:29:40;;;;;;;6.82;2.92;;;19.10;99.90;;;;;;5094613;28;20047;-75
2022/08/05 04:32:07;;;;;;;5.38;2.92;;;19.10;99.90;;;;;;5094586;28;20044;-75
2022/08/05 04:34:33;;;;;;;5.50;3.00;;;19.10;99.90;;;;;;5094194;28;20060;-75
2022/08/05 04:36:59;;;;;;;6.28;2.60;;;19.10;99.90;;;;;;5093132;28;20357;-75
2022/08/05 04:39:24;;;;;;;7.93;2.88;;;19.30;99.90;;;;;;5075440;28;20481;-75
2022/08/05 04:41:50;;;;;;;5.85;3.00;;;19.30;99.90;;;;;;5094416;28;20067;-75
2022/08/05 04:44:16;;;;;;;7.72;2.92;;;19.10;99.90;;;;;;5094272;28;20040;-75
2022/08/05 04:46:41;;;;;;;7.00;2.40;;;19.10;99.90;;;;;;5094213;28;20412;-75
2022/08/05 04:49:07;;;;;;;8.48;3.10;;;19.20;99.90;;;;;;5094217;28;20082;-75
2022/08/05 04:51:33;;;;;;;5.70;2.70;;;19.10;99.90;;;;;;5092625;28;20048;-75
2022/08/05 04:53:58;;;;;;;6.60;2.90;;;19.10;99.90;;;;;;5092606;28;20071;-75
2022/08/05 04:56:24;;;;;;;7.20;2.65;;;19.20;99.90;;;;;;5094067;28;20056;-76
2022/08/05 04:58:50;;;;;;;6.22;2.65;;;19.20;99.90;;;;;;5092775;28;20373;-75
2022/08/05 05:01:15;;;;;;;5.65;2.78;;;19.20;99.90;;;;;;5093797;28;20094;-75
2022/08/05 05:03:41;;;;;;;7.70;2.92;;;19.40;99.90;;;;;;5093975;28;20054;-76
2022/08/05 05:06:11;;;;;;;5.65;2.78;;;19.20;99.90;;;;;;5093720;28;20056;-76
2022/08/05 05:08:37;;;;;;;7.07;3.20;;;19.20;99.90;;;;;;5093021;28;20369;-76
2022/08/05 05:11:02;;;;;;;10.43;3.17;;;19.30;99.90;;;;;;5094003;28;20100;-75
2022/08/05 05:13:28;;;;;;;11.77;3.50;;;19.20;99.90;;;;;;5093846;28;20127;-75
2022/08/05 05:15:54;;;;;;;8.25;3.33;;;19.20;99.90;;;;;;5093960;28;20115;-76
2022/08/05 05:18:20;;;;;;;6.78;3.20;;;19.20;99.90;;;;;;5093813;28;20498;-76
2022/08/05 05:20:46;;;;;;;9.50;3.45;;;19.20;99.90;;;;;;5126361;27;20401;-75
2022/08/05 05:23:12;;;;;;;5.53;3.00;;;19.20;99.90;;;;;;5093936;28;20047;-75
2022/08/05 05:25:40;;;;;;;7.85;3.10;;;19.20;99.90;;;;;;5093543;28;20040;-76
2022/08/05 05:28:07;;;;;;;5.90;3.17;;;19.20;99.90;;;;;;5092092;28;20047;-76
2022/08/05 05:30:33;;;;;;;5.15;3.05;;;19.20;99.90;;;;;;5093291;28;20044;-75
2022/08/05 05:33:00;;;;;;;6.25;3.00;;;19.10;99.90;;;;;;5093347;28;20048;-75
2022/08/05 05:35:26;;;;;;;7.05;2.90;;;19.20;99.90;;;;;;5072373;28;20043;-76
2022/08/05 05:37:53;;;;;;;7.60;2.55;;;19.10;99.90;;;;;;5092170;28;20044;-75
2022/08/05 05:40:21;;;;;;;8.65;3.00;;;19.10;99.90;;;;;;5093010;28;20507;-75
2022/08/05 05:42:47;;;;;;;6.05;2.67;;;19.10;99.90;;;;;;5091679;28;20035;-75
2022/08/05 05:45:13;;;;;;;6.45;2.70;;;19.00;99.90;;;;;;5092059;28;20082;-75
2022/08/05 05:47:39;;;;;;;8.38;3.00;;;19.00;99.90;;;;;;5092122;28;20473;-76
2022/08/05 05:50:09;;;;;;;6.35;2.80;;;18.90;99.90;;;;;;5092616;28;20105;-76
2022/08/05 05:52:35;;;;;;;5.55;2.70;;;18.90;99.90;;;;;;5092789;28;20075;-75
2022/08/05 05:55:02;;;;;;;6.40;2.85;;;19.30;99.90;;;;;;5092958;28;20090;-75
2022/08/05 05:57:28;;;;;;;5.78;2.97;;;18.90;99.90;;;;;;5092691;28;20055;-76
2022/08/05 05:59:54;;;;;;;8.02;2.63;;;18.80;99.90;;;;;;5091338;28;20405;-75
2022/08/05 06:02:20;;;;;;;5.93;2.88;;;18.80;99.90;;;;;;5092913;28;20167;-75
2022/08/05 06:04:45;;;;;;;4.57;2.33;;;18.80;99.90;;;;;;5092495;28;20052;-76
2022/08/05 06:07:11;;;;;;;4.35;2.55;;;18.80;99.90;;;;;;5092913;28;20040;-75
2022/08/05 06:09:37;;;;;;;3.85;2.60;;;18.80;99.90;;;;;;5092847;28;20484;-76
2022/08/05 06:12:03;;;;;;;7.18;2.90;;;18.80;99.90;;;;;;5092734;28;20044;-75
2022/08/05 06:14:31;;;;;;;4.63;2.60;;;19.10;99.90;;;;;;5092563;28;20174;-75
2022/08/05 06:16:57;;;;;;;5.25;3.10;;;18.80;99.90;;;;;;5092659;28;20036;-75
2022/08/05 06:19:23;;;;;;;6.13;2.90;;;18.90;99.90;;;;;;5092426;28;20135;-75
2022/08/05 06:21:48;;;;;;;4.75;2.40;;;18.90;99.90;;;;;;5092562;28;20182;-76
2022/08/05 06:24:14;;;;;;;5.20;2.50;;;18.90;99.90;;;;;;5092575;28;20101;-76
2022/08/05 06:26:40;;;;;;;5.25;2.47;;;19.00;99.90;;;;;;5092622;28;20477;-76
2022/08/05 06:29:06;;;;;;;6.25;2.40;;;19.00;99.90;;;;;;5092585;28;20457;-76
2022/08/05 06:31:31;;;;;;;4.03;2.15;;;19.00;99.90;;;;;;5091849;28;20089;-76
2022/08/05 06:33:57;;;;;;;7.25;2.53;;;19.10;99.90;;;;;;5091202;28;20056;-76
2022/08/05 06:36:23;;;;;;;4.45;2.28;;;19.20;99.90;;;;;;5092301;28;20168;-76
2022/08/05 06:38:52;;;;;;;4.93;2.20;;;19.20;99.90;;;;;;5092581;28;20126;-76
2022/08/05 06:41:18;;;;;;;4.32;2.00;;;19.20;99.90;;;;;;5092412;28;20048;-76
2022/08/05 06:43:43;;;;;;;4.15;1.90;;;19.20;99.90;;;;;;5091077;28;20115;-77
2022/08/05 06:46:09;;;;;;;4.22;2.00;;;19.30;99.90;;;;;;5092508;28;20101;-76
2022/08/05 06:48:35;;;;;;;3.47;1.50;;;19.30;99.90;;;;;;5092397;28;20037;-76
2022/08/05 06:51:03;;;;;;;3.53;1.63;;;19.30;99.90;;;;;;5124780;28;20048;-76
2022/08/05 06:53:28;;;;;;;4.30;1.50;;;19.50;99.90;;;;;;5072288;28;20086;-76
2022/08/05 06:55:55;;;;;;;4.35;1.55;;;19.60;99.90;;;;;;5090811;28;20048;-76
2022/08/05 06:58:21;;;;;;;5.18;1.77;;;19.60;99.90;;;;;;5074191;28;20043;-76
2022/08/05 07:00:46;;;;;;;3.40;1.50;;;19.70;99.90;;;;;;5092185;28;20123;-76
2022/08/05 07:03:12;;;;;;;4.07;1.75;;;19.60;99.90;;;;;;5093655;28;20496;-76
2022/08/05 07:05:38;;;;;;;2.72;1.50;;;19.70;99.90;;;;;;5094802;28;20047;-76
2022/08/05 07:08:04;;;;;;;5.18;1.80;;;19.70;99.90;;;;;;5096375;28;20524;-76
2022/08/05 07:10:29;;;;;;;4.30;1.52;;;19.70;99.90;;;;;;5093644;28;20076;-76
2022/08/05 07:18:24;;;;;;;4.93;1.63;;;19.90;99.90;;;;;;5093312;28;20087;-76
2022/08/05 07:20:50;;;;;;;5.28;1.65;;;19.90;99.90;;;;;;5095848;28;20055;-76
2022/08/05 07:23:15;;;;;;;5.47;1.60;;;19.90;99.90;;;;;;5095802;28;20040;-76
2022/08/05 07:25:41;;;;;;;3.08;1.45;;;20.10;99.90;;;;;;5095727;28;20048;-76
2022/08/05 07:28:07;;;;;;;5.75;1.45;;;20.30;99.90;;;;;;5094371;28;20036;-76
2022/08/05 07:30:34;;;;;;;2.15;1.23;;;20.40;99.90;;;;;;5095094;28;20048;-76
2022/08/05 07:33:01;;;;;;;2.88;1.30;;;20.50;99.90;;;;;;5095473;28;20052;-76
2022/08/05 07:35:27;;;;;;;3.25;1.30;;;20.50;99.90;;;;;;5095656;28;20035;-76
2022/08/05 07:37:53;;;;;;;3.88;1.45;;;20.60;99.90;;;;;;5095314;28;20513;-76
2022/08/05 07:40:18;;;;;;;3.97;1.60;;;20.70;99.90;;;;;;5093811;28;20522;-76
2022/08/05 07:42:44;;;;;;;4.88;1.67;;;20.70;99.90;;;;;;5095606;28;20093;-76
2022/08/05 07:45:10;;;;;;;2.20;1.38;;;20.80;99.90;;;;;;5095364;28;20062;-76
2022/08/05 07:47:35;;;;;;;4.65;1.40;;;20.80;99.90;;;;;;5095196;28;20463;-76
2022/08/05 07:50:01;;;;;;;3.67;1.27;;;21.10;99.90;;;;;;5095065;28;20040;-76
2022/08/05 07:52:26;;;;;;;4.38;1.42;;;20.90;99.90;;;;;;5095245;28;20143;-77
2022/08/05 07:54:52;;;;;;;5.78;1.40;;;20.90;99.90;;;;;;5093959;28;20039;-76
2022/08/05 07:57:17;;;;;;;2.75;1.30;;;20.80;99.90;;;;;;5094404;28;20093;-76
2022/08/05 07:59:43;;;;;;;3.35;1.60;;;20.80;99.90;;;;;;5094923;28;20047;-76
2022/08/05 08:02:09;;;;;;;3.85;1.30;;;20.70;99.90;;;;;;5094751;28;20143;-76
2022/08/05 08:04:35;;;;;;;3.50;1.20;;;20.70;99.90;;;;;;5094587;28;20052;-76
2022/08/05 08:07:01;;;;;;;2.95;1.10;;;20.80;99.90;;;;;;5094430;28;20342;-76
2022/08/05 08:09:26;;;;;;;3.80;1.10;;;20.90;99.90;;;;;;5093218;28;20037;-76
2022/08/05 08:11:52;;;;;;;3.85;1.30;;;20.90;99.90;;;;;;5092142;28;20074;-76
2022/08/05 08:14:18;;;;;;;3.92;1.20;;;20.90;99.90;;;;;;5094647;28;20066;-76
2022/08/05 08:16:44;;;;;;;4.03;1.42;;;21.00;99.90;;;;;;5094788;28;20036;-76
2022/08/05 08:19:09;;;;;;;2.50;1.20;;;21.20;99.90;;;;;;5094274;28;20488;-76
2022/08/05 08:21:35;;;;;;;3.85;1.30;;;21.20;99.90;;;;;;5094125;28;20117;-76
2022/08/05 08:24:01;;;;;;;3.67;1.17;;;21.30;99.90;;;;;;5092723;28;20391;-76
2022/08/05 08:26:27;;;;;;;3.10;1.20;;;21.30;99.90;;;;;;5093017;28;20044;-76
2022/08/05 08:28:52;;;;;;;3.10;1.20;;;21.50;99.90;;;;;;5093137;28;20074;-76
2022/08/05 08:31:18;;;;;;;3.20;1.30;;;21.70;99.90;;;;;;5092731;28;20047;-76
2022/08/05 08:33:44;;;;;;;4.53;1.45;;;21.70;99.90;;;;;;5094338;28;20044;-76
2022/08/05 08:36:10;;;;;;;4.78;1.52;;;21.60;99.90;;;;;;5093133;28;20066;-76
2022/08/05 08:38:35;;;;;;;6.43;1.52;;;21.50;99.90;;;;;;5094263;28;20044;-77
2022/08/05 08:41:05;;;;;;;5.05;1.50;;;21.20;99.90;;;;;;5094453;28;20044;-76
2022/08/05 08:43:32;;;;;;;4.00;1.23;;;21.00;99.90;;;;;;5094007;28;20040;-76
2022/08/05 08:46:00;;;;;;;5.68;1.40;;;20.90;99.90;;;;;;5093819;28;20090;-76
2022/08/05 08:48:27;;;;;;;2.92;1.20;;;21.00;99.90;;;;;;5093847;28;20051;-76
2022/08/05 08:50:53;;;;;;;2.95;1.17;;;21.20;99.90;;;;;;5092482;28;20126;-76
2022/08/05 08:53:20;;;;;;;5.57;1.30;;;21.50;99.90;;;;;;5092630;28;20134;-76
2022/08/05 08:55:46;;;;;;;5.85;1.35;;;21.50;99.90;;;;;;5093857;28;20085;-76
2022/08/05 08:58:15;;;;;;;3.72;1.30;;;21.50;99.90;;;;;;5092591;28;20036;-76
2022/08/05 09:00:41;;;;;;;3.28;1.20;;;21.40;99.90;;;;;;5093527;28;20051;-76
2022/08/05 09:03:08;;;;;;;4.55;1.15;;;21.20;99.90;;;;;;5093590;28;20107;-76
2022/08/05 09:05:33;;;;;;;3.78;1.35;;;21.00;99.90;;;;;;5093514;28;20381;-76
2022/08/05 09:07:59;;;;;;;2.72;0.95;;;21.00;99.90;;;;;;5093569;28;20047;-76
2022/08/05 09:10:25;;;;;;;4.00;1.23;;;21.10;99.90;;;;;;5093772;28;20035;-76
2022/08/05 09:12:51;;;;;;;3.70;1.30;;;21.10;99.90;;;;;;5093690;28;20065;-76
2022/08/05 09:15:17;;;;;;;2.75;1.05;;;21.20;99.90;;;;;;5093466;28;20115;-76
2022/08/05 09:17:42;;;;;;;2.17;1.13;;;21.20;99.90;;;;;;5091904;28;20062;-76
2022/08/05 09:20:09;;;;;;;4.22;1.20;;;21.20;99.90;;;;;;5091871;28;20485;-76
2022/08/05 09:23:11;;;;;;;2.75;1.00;;;21.50;99.90;;;;;;5093050;28;20048;-77
2022/08/05 09:25:39;;;;;;;3.25;1.58;;;21.70;99.90;;;;;;5092780;28;20489;-76
2022/08/05 09:28:16;;;;;;;3.72;1.13;;;21.80;99.90;;;;;;5093179;28;20047;-76
2022/08/05 09:30:52;;;;;;;2.50;1.02;;;21.90;99.90;;;;;;5092746;28;20083;-77
2022/08/05 09:33:18;;;;;;;3.33;1.33;;;21.90;99.90;;;;;;5091534;28;20051;-76
2022/08/05 09:36:04;;;;;;;2.20;0.95;;;22.00;99.90;;;;;;5092994;28;20036;-76
2022/08/05 09:38:31;;;;;;;3.35;1.10;;;22.30;99.90;;;;;;5092919;28;20040;-77
2022/08/05 09:41:06;;;;;;;4.85;1.15;;;22.50;99.90;;;;;;5093052;28;20043;-77
2022/08/05 09:43:36;;;;;;;;;;;22.50;99.90;;;;;;5093314;28;20512;-76
2022/08/05 09:46:05;;;;;;;3.70;1.05;;;22.50;99.90;;;;;;5092928;28;19920;-77
2022/08/05 09:48:33;;;;;;;4.43;1.10;;;22.70;99.90;;;;;;5092908;28;20169;-77
2022/08/05 09:51:04;;;;;;;2.05;1.00;;;22.80;99.90;;;;;;5092631;28;20055;-77
2022/08/05 09:53:49;;;;;;;2.88;1.20;;;22.80;99.90;;;;;;5092831;28;20051;-77
2022/08/05 09:56:28;;;;;;;2.33;0.93;;;23.00;99.90;;;;;;5091286;28;20043;-76
2022/08/05 09:59:06;;;;;;;2.38;0.90;;;23.00;99.90;;;;;;5092780;28;20115;-76
2022/08/05 10:01:35;;;;;;;4.80;1.10;;;23.40;99.90;;;;;;5090834;28;20048;-77
2022/08/05 10:04:18;;;;;;;1.45;1.08;;;23.60;99.90;;;;;;5091285;28;20128;-77
2022/08/05 10:06:55;;;;;;;1.55;1.00;;;24.80;99.00;;;;;;5091272;28;20036;-76
2022/08/05 10:09:21;;;;;;;4.13;1.00;;;26.90;96.30;;;;;;5092554;28;20433;-76
2022/08/05 10:11:49;;;;;;;1.40;0.82;;;29.50;94.00;;;;;;5092717;28;20075;-77
2022/08/05 10:14:28;;;;;;;3.55;1.10;;;31.80;91.40;;;;;;5074083;28;20040;-77
2022/08/05 10:16:55;;;;;;;4.22;1.23;;;33.30;86.10;;;;;;5091141;28;20048;-77
2022/08/05 10:19:25;;;;;;;4.35;1.05;;;33.00;85.90;;;;;;5092472;28;20047;-77
2022/08/05 10:21:51;;;;;;;2.40;1.10;;;33.00;83.80;;;;;;5091763;28;20054;-77
2022/08/05 10:24:18;;;;;;;2.58;0.82;;;33.40;82.60;;;;;;5091829;28;20097;-78
2022/08/05 10:26:46;;;;;;;1.83;1.00;;;34.90;82.40;;;;;;5092359;28;20040;-76
2022/08/05 10:29:12;;;;;;;1.13;0.68;;;36.20;77.50;;;;;;5089772;28;20083;-75
2022/08/05 10:31:38;;;;;;;1.83;0.90;;;37.70;75.00;;;;;;5110543;28;20113;-76
2022/08/05 10:34:06;;;;;;;2.10;0.80;;;39.60;72.40;;;;;;5112945;28;20055;-76
2022/08/05 10:36:32;;;;;;;1.17;0.52;;;40.60;68.50;;;;;;5113015;28;20487;-76
2022/08/05 10:39:05;;;;;;;3.72;0.88;;;41.10;64.60;;;;;;5115373;28;20048;-75
2022/08/05 10:41:42;;;;;;;2.30;0.50;;;41.40;59.30;;;;;;5116858;27;20394;-76
2022/08/05 10:44:14;;;;;;;1.38;0.80;;;41.10;60.00;;;;;;5113489;28;20061;-76
2022/08/05 10:46:54;;;;;;;1.80;0.77;;;40.20;57.20;;;;;;5115843;28;20039;-76
2022/08/05 10:49:22;;;;;;;1.85;0.43;;;40.00;57.30;;;;;;5115565;28;20054;-76
2022/08/05 10:51:59;;;;;;;1.38;0.60;;;40.80;59.10;;;;;;5115507;28;20036;-76
2022/08/05 10:54:45;;;;;;;1.95;0.60;;;41.20;58.70;;;;;;5116586;28;20040;-76
2022/08/05 10:57:23;;;;;;;0.77;0.30;;;42.00;57.20;;;;;;5116754;28;20044;-76
2022/08/05 11:00:25;;;;;;;1.75;0.70;;;41.40;56.50;;;;;;5116613;28;20157;-76
2022/08/05 11:03:06;;;;;;;3.67;0.90;;;39.30;56.90;;;;;;5115921;28;20143;-76
2022/08/05 11:05:33;;;;;;;1.25;0.65;;;38.50;56.00;;;;;;5116586;28;20078;-76
2022/08/05 11:08:04;;;;;;;1.27;0.60;;;37.90;57.10;;;;;;5116680;28;20497;-76
2022/08/05 11:10:32;;;;;;;1.27;0.65;;;37.00;56.50;;;;;;5116352;28;20043;-76
2022/08/05 11:12:58;;;;;;;1.75;0.88;;;36.40;58.40;;;;;;5116283;28;20047;-77
2022/08/05 11:15:29;;;;;;;2.70;0.80;;;34.90;59.30;;;;;;5116046;28;20534;-76
2022/08/05 11:18:24;;;;;;;0.82;0.40;;;34.60;60.40;;;;;;5116368;28;20055;-76
2022/08/05 11:20:51;;;;;;;2.55;0.75;;;34.20;58.30;;;;;;5096612;28;20381;-76
2022/08/05 11:23:50;;;;;;;1.75;0.63;;;33.60;60.40;;;;;;5095461;28;20036;-76
2022/08/05 11:26:16;;;;;;;2.58;0.73;;;35.50;60.00;;;;;;5095448;28;20406;-76
2022/08/05 11:28:49;;;;;;;1.38;0.60;;;37.50;59.20;;;;;;5095718;28;20040;-76
2022/08/05 11:31:15;;;;;;;2.60;0.83;;;39.60;57.00;;;;;;5094371;28;20124;-76
2022/08/05 11:33:55;;;;;;;2.67;0.60;;;40.30;57.60;;;;;;5091443;28;20500;-76
2022/08/05 11:36:43;;;;;;;2.78;0.82;;;41.00;56.10;;;;;;5094160;28;20044;-75
2022/08/05 11:39:10;;;;;;;2.63;0.90;;;39.90;57.80;;;;;;5092753;28;20052;-77
2022/08/05 11:41:37;;;;;;;3.17;1.13;;;37.20;59.60;;;;;;5092806;28;20110;-75
2022/08/05 11:44:14;;;;;;;2.42;1.00;;;34.80;61.70;;;;;;5093819;28;20048;-75
2022/08/05 11:46:50;;;;;;;2.15;1.00;;;34.20;64.50;;;;;;5094043;28;20445;-76
2022/08/05 11:49:18;;;;;;;5.80;1.08;;;35.00;63.50;;;;;;5093505;28;20166;-76
2022/08/05 11:51:45;;;;;;;1.85;0.75;;;33.60;61.30;;;;;;5093846;28;20058;-76
2022/08/05 11:54:12;;;;;;;1.65;0.70;;;32.40;62.20;;;;;;5093993;28;20064;-76
2022/08/05 11:56:49;;;;;;;2.05;0.77;;;30.00;62.80;;;;;;5093684;28;20077;-75
2022/08/05 11:59:17;;;;;;;2.15;0.95;;;29.90;64.60;;;;;;5092362;28;20051;-75
2022/08/05 12:02:02;;;;;;;2.83;0.80;;;30.40;65.00;;;;;;5092676;28;20036;-75
2022/08/05 12:04:38;;;;;;;;;;;30.70;64.50;;;;;;5094062;28;20078;-75
2022/08/05 12:07:06;;;;;;;3.60;1.00;;;29.50;66.60;;;;;;5125533;28;20304;-76
2022/08/05 12:09:36;;;;;;;2.38;1.00;;;29.00;66.60;;;;;;5092433;28;20040;-75
2022/08/05 12:12:04;;;;;;;3.95;1.10;;;28.40;66.30;;;;;;5092476;28;20161;-75
2022/08/05 12:14:41;;;;;;;2.45;0.85;;;27.80;69.60;;;;;;5092251;28;20463;-75
2022/08/05 12:17:09;;;;;;;3.33;1.05;;;26.70;73.30;;;;;;5094004;28;20072;-75
2022/08/05 12:19:47;;;;;;;2.60;0.82;;;26.30;73.80;;;;;;5093295;28;20100;-75
2022/08/05 12:22:14;;;;;;;3.25;1.00;;;25.50;75.30;;;;;;5093350;28;20040;-75
2022/08/05 12:24:45;;;;;;;2.03;1.05;;;25.50;76.40;;;;;;5091847;28;20048;-75
2022/08/05 12:27:23;;;;;;;2.35;0.80;;;27.70;75.80;;;;;;5093531;28;20040;-76
2022/08/05 12:32:34;;;;;;;4.60;1.10;;;28.50;70.90;;;;;;5130636;27;20435;-76
2022/08/05 12:35:05;;;;;;;3.45;1.00;;;28.10;70.30;;;;;;5130878;28;20051;-75
2022/08/05 12:37:30;;;;;;;2.78;0.93;;;27.10;71.80;;;;;;5130446;28;20079;-75
2022/08/05 12:39:57;;;;;;;4.35;0.80;;;25.70;73.20;;;;;;5112278;28;20448;-75
2022/08/05 12:42:22;;;;;;;2.53;1.00;;;25.00;75.20;;;;;;5130328;28;20078;-75
2022/08/05 12:44:48;;;;;;;5.70;0.88;;;24.60;76.40;;;;;;5130232;28;20054;-75
2022/08/05 12:47:28;;;;;;;4.35;1.10;;;24.70;77.30;;;;;;5125463;28;20528;-75
2022/08/05 12:49:54;;;;;;;3.92;0.90;;;24.70;77.50;;;;;;5109463;28;20047;-74
2022/08/05 12:52:20;;;;;;;1.83;1.10;;;24.80;77.90;;;;;;5109648;28;20039;-75
2022/08/05 12:54:50;;;;;;;3.60;1.10;;;24.60;78.80;;;;;;5109790;28;20040;-75
2022/08/05 12:57:17;;;;;;;2.42;1.00;;;24.40;78.10;;;;;;5109940;28;20162;-75
2022/08/05 12:59:46;;;;;;;2.70;1.13;;;24.20;78.90;;;;;;5109604;28;20489;-75
2022/08/05 13:02:14;;;;;;;3.00;1.20;;;24.40;79.30;;;;;;5109562;28;20044;-75
2022/08/05 13:04:42;;;;;;;2.67;1.13;;;24.20;79.60;;;;;;5125377;28;20101;-75